Time,TemperatureF,DewpointF,PressureIn,WindDirection,WindDirectionDegrees,WindSpeedMPH,WindSpeedGustMPH,Humidity,HourlyPrecipIn,Conditions,Clouds,dailyrainin,SoftwareType,DateUTC
2013-02-06 06:14:00,25.6,24.0,30.00,SSE,148,0.0,-999.0,93,-99.99,,,0.00,weatherlink.com 1.10,2013-02-06 11:14:00,
2013-02-06 06:30:00,25.6,24.0,30.01,SSE,148,0.0,-999.0,93,-99.99,,,0.00,weatherlink.com 1.10,2013-02-06 11:30:00,
2013-02-06 06:45:00,25.7,24.0,30.01,SSE,148,0.0,-999.0,94,-99.99,,,0.00,weatherlink.com 1.10,2013-02-06 11:45:00,
2013-02-06 07:00:00,25.6,24.0,30.02,SSE,148,0.0,-999.0,94,-99.99,,,0.00,weatherlink.com 1.10,2013-02-06 12:00:00,
2013-02-06 07:15:00,25.5,24.0,30.03,SSE,148,0.0,-999.0,94,-99.99,,,0.00,weatherlink.com 1.10,2013-02-06 12:15:00,
2013-02-06 07:30:00,25.3,24.0,30.03,SSE,148,0.0,-999.0,94,-99.99,,,0.00,weatherlink.com 1.10,2013-02-06 12:30:00,
2013-02-06 07:45:00,25.3,24.0,30.05,SSE,148,0.0,-999.0,94,-99.99,,,0.00,weatherlink.com 1.10,2013-02-06 12:45:00,
2013-02-06 08:00:00,25.7,25.0,30.06,SSE,148,0.0,-999.0,95,-99.99,,,0.00,weatherlink.com 1.10,2013-02-06 13:00:00,
2013-02-06 08:16:00,26.2,25.0,30.07,SSE,148,0.0,-999.0,95,-99.99,,,0.00,weatherlink.com 1.10,2013-02-06 13:16:00,
2013-02-06 08:31:00,26.9,26.0,30.07,WSW,257,0.0,-999.0,95,-99.99,,,0.00,weatherlink.com 1.10,2013-02-06 13:31:00,
2013-02-06 08:46:00,27.6,26.0,30.08,WSW,257,0.0,-999.0,94,-99.99,,,0.00,weatherlink.com 1.10,2013-02-06 13:46:00,
2013-02-06 09:01:00,28.6,27.0,30.07,WSW,249,5.0,-999.0,93,-99.99,,,0.00,weatherlink.com 1.10,2013-02-06 14:01:00,
2013-02-06 09:16:00,29.8,27.0,30.06,NW,319,0.0,-999.0,88,-99.99,,,0.00,weatherlink.com 1.10,2013-02-06 14:16:00,
2013-02-06 09:31:00,30.8,27.0,30.07,NNW,333,4.0,-999.0,84,-99.99,,,0.00,weatherlink.com 1.10,2013-02-06 14:31:00,
2013-02-06 09:46:00,31.7,26.0,30.08,NW,320,2.0,-999.0,79,-99.99,,,0.00,weatherlink.com 1.10,2013-02-06 14:46:00,
2013-02-06 10:01:00,32.6,26.0,30.09,North,350,4.0,-999.0,75,-99.99,,,0.00,weatherlink.com 1.10,2013-02-06 15:01:00,
2013-02-06 10:16:00,33.2,25.0,30.10,NW,315,2.0,-999.0,72,-99.99,,,0.00,weatherlink.com 1.10,2013-02-06 15:16:00,
2013-02-06 10:32:00,33.2,25.0,30.10,WNW,298,5.0,-999.0,72,-99.99,,,0.00,weatherlink.com 1.10,2013-02-06 15:32:00,
2013-02-06 10:47:00,33.3,26.0,30.10,SW,221,3.0,-999.0,73,-99.99,,,0.00,weatherlink.com 1.10,2013-02-06 15:47:00,
2013-02-06 11:02:00,33.4,25.0,30.10,SW,220,4.0,-999.0,72,-99.99,,,0.00,weatherlink.com 1.10,2013-02-06 16:02:00,
2013-02-06 11:17:00,34.2,25.0,30.09,NW,321,6.0,-999.0,70,-99.99,,,0.00,weatherlink.com 1.10,2013-02-06 16:17:00,
2013-02-06 11:32:00,35.0,24.0,30.09,NW,321,4.0,-999.0,65,-99.99,,,0.00,weatherlink.com 1.10,2013-02-06 16:32:00,
2013-02-06 11:47:00,35.5,23.0,30.09,NNW,334,6.0,-999.0,61,-99.99,,,0.00,weatherlink.com 1.10,2013-02-06 16:47:00,
2013-02-06 12:02:00,34.9,22.0,30.10,North,350,7.0,-999.0,60,-99.99,,,0.00,weatherlink.com 1.10,2013-02-06 17:02:00,
2013-02-06 12:17:00,35.2,23.0,30.10,North,10,9.0,-999.0,62,-99.99,,,0.00,weatherlink.com 1.10,2013-02-06 17:17:00,
2013-02-06 12:32:00,35.3,24.0,30.10,WNW,298,4.0,-999.0,63,-99.99,,,0.00,weatherlink.com 1.10,2013-02-06 17:32:00,
2013-02-06 12:47:00,35.0,24.0,30.10,NW,312,4.0,-999.0,64,-99.99,,,0.00,weatherlink.com 1.10,2013-02-06 17:47:00,
2013-02-06 13:02:00,34.8,23.0,30.10,North,355,4.0,-999.0,63,-99.99,,,0.00,weatherlink.com 1.10,2013-02-06 18:02:00,
2013-02-06 13:18:00,34.9,23.0,30.10,NW,306,0.0,-999.0,62,-99.99,,,0.00,weatherlink.com 1.10,2013-02-06 18:18:00,
2013-02-06 13:33:00,35.3,24.0,30.11,NNW,333,0.0,-999.0,64,-99.99,,,0.00,weatherlink.com 1.10,2013-02-06 18:33:00,
2013-02-06 13:48:00,35.6,23.0,30.11,North,355,2.0,-999.0,61,-99.99,,,0.00,weatherlink.com 1.10,2013-02-06 18:48:00,
2013-02-06 14:03:00,35.3,22.0,30.10,North,360,3.0,-999.0,58,-99.99,,,0.00,weatherlink.com 1.10,2013-02-06 19:03:00,
2013-02-06 14:18:00,35.5,22.0,30.11,North,360,5.0,-999.0,59,-99.99,,,0.00,weatherlink.com 1.10,2013-02-06 19:18:00,
2013-02-06 14:33:00,36.2,23.0,30.11,WNW,292,0.0,-999.0,58,-99.99,,,0.00,weatherlink.com 1.10,2013-02-06 19:33:00,
2013-02-06 14:48:00,36.6,22.0,30.12,NNW,335,1.0,-999.0,55,-99.99,,,0.00,weatherlink.com 1.10,2013-02-06 19:48:00,
2013-02-06 15:03:00,36.3,21.0,30.13,SW,227,2.0,-999.0,54,-99.99,,,0.01,weatherlink.com 1.10,2013-02-06 20:03:00,
2013-02-06 15:18:00,36.4,21.0,30.13,North,355,2.0,-999.0,54,-99.99,,,0.01,weatherlink.com 1.10,2013-02-06 20:18:00,
2013-02-06 15:33:00,36.4,20.0,30.14,NW,323,2.0,-999.0,52,-99.99,,,0.01,weatherlink.com 1.10,2013-02-06 20:33:00,
2013-02-06 15:48:00,36.2,21.0,30.14,NNW,327,0.0,-999.0,54,-99.99,,,0.01,weatherlink.com 1.10,2013-02-06 20:48:00,
2013-02-06 16:04:00,36.2,19.0,30.15,NNW,332,1.0,-999.0,50,-99.99,,,0.01,weatherlink.com 1.10,2013-02-06 21:04:00,
2013-02-06 16:19:00,36.3,18.0,30.15,NW,306,4.0,-999.0,47,-99.99,,,0.01,weatherlink.com 1.10,2013-02-06 21:19:00,
2013-02-06 16:34:00,36.2,17.0,30.16,NNW,339,4.0,-999.0,46,-99.99,,,0.01,weatherlink.com 1.10,2013-02-06 21:34:00,
2013-02-06 16:49:00,36.0,16.0,30.17,NNW,327,6.0,-999.0,45,-99.99,,,0.01,weatherlink.com 1.10,2013-02-06 21:49:00,
2013-02-06 17:19:00,34.9,17.0,30.20,NW,304,7.0,-999.0,48,-99.99,,,0.01,weatherlink.com 1.10,2013-02-06 22:19:00,
2013-02-06 17:34:00,34.3,17.0,30.20,NNW,327,7.0,-999.0,49,-99.99,,,0.01,weatherlink.com 1.10,2013-02-06 22:34:00,
2013-02-06 17:49:00,33.9,17.0,30.22,NNW,348,6.0,-999.0,50,-99.99,,,0.01,weatherlink.com 1.10,2013-02-06 22:49:00,
2013-02-06 18:04:00,33.2,16.0,30.23,NNW,335,2.0,-999.0,50,-99.99,,,0.01,weatherlink.com 1.10,2013-02-06 23:04:00,
2013-02-06 18:19:00,32.8,15.0,30.24,NNW,333,0.0,-999.0,49,-99.99,,,0.01,weatherlink.com 1.10,2013-02-06 23:19:00,
2013-02-06 18:35:00,32.4,16.0,30.25,NNW,328,4.0,-999.0,50,-99.99,,,0.01,weatherlink.com 1.10,2013-02-06 23:35:00,
2013-02-06 18:50:00,31.8,16.0,30.26,NW,326,2.0,-999.0,52,-99.99,,,0.01,weatherlink.com 1.10,2013-02-06 23:50:00,
2013-02-06 19:05:00,31.5,16.0,30.26,NNW,336,0.0,-999.0,52,-99.99,,,0.01,weatherlink.com 1.10,2013-02-07 00:05:00,
2013-02-06 19:20:00,31.3,15.0,30.27,North,350,8.0,-999.0,51,-99.99,,,0.01,weatherlink.com 1.10,2013-02-07 00:20:00,
2013-02-06 19:35:00,31.1,14.0,30.28,NNW,327,6.0,-999.0,50,-99.99,,,0.01,weatherlink.com 1.10,2013-02-07 00:35:00,
2013-02-06 19:50:00,31.2,13.0,30.28,NNW,337,6.0,-999.0,48,-99.99,,,0.01,weatherlink.com 1.10,2013-02-07 00:50:00,
2013-02-06 20:05:00,30.9,14.0,30.29,NNW,336,4.0,-999.0,50,-99.99,,,0.01,weatherlink.com 1.10,2013-02-07 01:05:00,
2013-02-06 20:20:00,30.5,13.0,30.31,WNW,285,1.0,-999.0,49,-99.99,,,0.01,weatherlink.com 1.10,2013-02-07 01:20:00,
2013-02-06 20:35:00,30.4,13.0,30.32,NW,317,1.0,-999.0,49,-99.99,,,0.01,weatherlink.com 1.10,2013-02-07 01:35:00,
2013-02-06 20:50:00,30.1,13.0,30.32,NNW,341,2.0,-999.0,49,-99.99,,,0.01,weatherlink.com 1.10,2013-02-07 01:50:00,
2013-02-06 21:05:00,29.8,12.0,30.33,North,355,9.0,-999.0,48,-99.99,,,0.01,weatherlink.com 1.10,2013-02-07 02:05:00,
2013-02-06 21:21:00,29.5,11.0,30.33,NNW,341,4.0,-999.0,47,-99.99,,,0.01,weatherlink.com 1.10,2013-02-07 02:21:00,
2013-02-06 21:36:00,29.2,11.0,30.32,North,355,5.0,-999.0,47,-99.99,,,0.01,weatherlink.com 1.10,2013-02-07 02:36:00,
2013-02-06 21:51:00,28.9,11.0,30.33,NW,314,5.0,-999.0,47,-99.99,,,0.01,weatherlink.com 1.10,2013-02-07 02:51:00,
2013-02-06 22:06:00,28.8,10.0,30.34,NNW,332,0.0,-999.0,46,-99.99,,,0.01,weatherlink.com 1.10,2013-02-07 03:06:00,
2013-02-06 22:21:00,28.4,9.0,30.35,NW,317,5.0,-999.0,45,-99.99,,,0.01,weatherlink.com 1.10,2013-02-07 03:21:00,
2013-02-06 22:36:00,28.3,9.0,30.35,NW,324,4.0,-999.0,44,-99.99,,,0.01,weatherlink.com 1.10,2013-02-07 03:36:00,
2013-02-06 22:51:00,27.8,8.0,30.35,NNW,344,1.0,-999.0,43,-99.99,,,0.01,weatherlink.com 1.10,2013-02-07 03:51:00,
2013-02-06 23:06:00,27.7,7.0,30.35,North,9,1.0,-999.0,42,-99.99,,,0.01,weatherlink.com 1.10,2013-02-07 04:06:00,